Glen Ellyn, Illinois
Current Conditions -  °F | °C
As of 4:29 AM on Saturday 22 Nov 2014 (Local Time) from KDPA Reporting Station
Light Rain Light Rain  
Wind Chill: 24°   Ceiling: 400
Heat Index: 33°   Visibility: 2mi
Dew Point: 32°   Wind: 12mph
Humidity: 96%   Direction: 190°S
Pressure: 30.06"   Gusts: NA
Location:  41.88°N, 88.06°W
Report Text: KDPA 221029Z 19010KT 2SM -RA BR OVC004 01/00 A3006 RMK AO2 UPE00RAB00 P0001 T00060000
Loading
Personal Weather Stations






























Interactive Weather Map New forecast layout! Learn more

10-Day Weather Forecast

Advertisements
Track Severe Weather on mobile